sensor_id;sensor_type;location;lat;lon;timestamp;temperature;humidity
68842;SHT35;55849;48.482;2.332;2023-05-28T00:02:05;21.36;54.63
68842;SHT35;55849;48.482;2.332;2023-05-28T00:05:07;21.30;54.56
68842;SHT35;55849;48.482;2.332;2023-05-28T00:08:09;21.26;54.66
68842;SHT35;55849;48.482;2.332;2023-05-28T00:11:11;21.23;54.83
68842;SHT35;55849;48.482;2.332;2023-05-28T00:14:14;21.18;54.98
68842;SHT35;55849;48.482;2.332;2023-05-28T00:17:16;21.15;54.97
68842;SHT35;55849;48.482;2.332;2023-05-28T00:20:18;21.12;54.94
68842;SHT35;55849;48.482;2.332;2023-05-28T00:23:19;21.09;55.09
68842;SHT35;55849;48.482;2.332;2023-05-28T00:26:21;21.08;55.08
68842;SHT35;55849;48.482;2.332;2023-05-28T00:29:24;21.05;55.23
68842;SHT35;55849;48.482;2.332;2023-05-28T00:32:27;21.02;55.22
68842;SHT35;55849;48.482;2.332;2023-05-28T00:35:28;20.99;55.09
68842;SHT35;55849;48.482;2.332;2023-05-28T00:38:30;20.98;55.22
68842;SHT35;55849;48.482;2.332;2023-05-28T00:41:31;20.96;55.26
68842;SHT35;55849;48.482;2.332;2023-05-28T00:44:37;20.94;55.29
68842;SHT35;55849;48.482;2.332;2023-05-28T00:47:40;20.91;55.20
68842;SHT35;55849;48.482;2.332;2023-05-28T00:50:42;20.90;55.12
68842;SHT35;55849;48.482;2.332;2023-05-28T00:53:44;20.87;55.11
68842;SHT35;55849;48.482;2.332;2023-05-28T00:56:46;20.87;55.19
68842;SHT35;55849;48.482;2.332;2023-05-28T00:59:50;20.82;55.16
68842;SHT35;55849;48.482;2.332;2023-05-28T01:02:52;20.80;55.16
68842;SHT35;55849;48.482;2.332;2023-05-28T01:05:54;20.77;55.08
68842;SHT35;55849;48.482;2.332;2023-05-28T01:08:55;20.75;55.08
68842;SHT35;55849;48.482;2.332;2023-05-28T01:11:58;20.71;54.99
68842;SHT35;55849;48.482;2.332;2023-05-28T01:15:01;20.64;54.96
68842;SHT35;55849;48.482;2.332;2023-05-28T01:18:03;20.63;55.12
68842;SHT35;55849;48.482;2.332;2023-05-28T01:21:07;20.57;54.92
68842;SHT35;55849;48.482;2.332;2023-05-28T01:24:12;20.51;54.98
68842;SHT35;55849;48.482;2.332;2023-05-28T01:27:14;20.47;55.10
68842;SHT35;55849;48.482;2.332;2023-05-28T01:30:16;20.46;55.09
68842;SHT35;55849;48.482;2.332;2023-05-28T01:33:18;20.40;55.11
68842;SHT35;55849;48.482;2.332;2023-05-28T01:36:28;20.36;55.06
68842;SHT35;55849;48.482;2.332;2023-05-28T01:39:37;20.30;55.17
68842;SHT35;55849;48.482;2.332;2023-05-28T01:42:40;20.26;55.24
68842;SHT35;55849;48.482;2.332;2023-05-28T01:45:42;20.25;55.35
68842;SHT35;55849;48.482;2.332;2023-05-28T01:48:44;20.18;55.38
68842;SHT35;55849;48.482;2.332;2023-05-28T01:51:46;20.12;55.28
68842;SHT35;55849;48.482;2.332;2023-05-28T01:54:49;20.13;55.34
68842;SHT35;55849;48.482;2.332;2023-05-28T01:57:51;20.06;55.12
68842;SHT35;55849;48.482;2.332;2023-05-28T02:00:58;20.05;55.42
68842;SHT35;55849;48.482;2.332;2023-05-28T02:04:01;20.04;55.44
68842;SHT35;55849;48.482;2.332;2023-05-28T02:07:03;20.01;55.47
68842;SHT35;55849;48.482;2.332;2023-05-28T02:10:07;19.97;55.44
68842;SHT35;55849;48.482;2.332;2023-05-28T02:13:09;19.95;55.29
68842;SHT35;55849;48.482;2.332;2023-05-28T02:16:10;19.91;55.44
68842;SHT35;55849;48.482;2.332;2023-05-28T02:19:17;19.88;55.51
68842;SHT35;55849;48.482;2.332;2023-05-28T02:22:19;19.85;55.42
68842;SHT35;55849;48.482;2.332;2023-05-28T02:25:22;19.82;55.57
68842;SHT35;55849;48.482;2.332;2023-05-28T02:28:24;19.78;55.53
68842;SHT35;55849;48.482;2.332;2023-05-28T02:31:26;19.75;55.44
68842;SHT35;55849;48.482;2.332;2023-05-28T02:34:27;19.73;55.45
68842;SHT35;55849;48.482;2.332;2023-05-28T02:37:29;19.69;55.48
68842;SHT35;55849;48.482;2.332;2023-05-28T02:40:32;19.67;55.37
68842;SHT35;55849;48.482;2.332;2023-05-28T02:43:34;19.62;55.43
68842;SHT35;55849;48.482;2.332;2023-05-28T02:46:35;19.59;55.48
68842;SHT35;55849;48.482;2.332;2023-05-28T02:49:37;19.59;55.56
68842;SHT35;55849;48.482;2.332;2023-05-28T02:52:38;19.56;55.32
68842;SHT35;55849;48.482;2.332;2023-05-28T02:55:41;19.54;55.46
68842;SHT35;55849;48.482;2.332;2023-05-28T02:58:43;19.50;55.42
68842;SHT35;55849;48.482;2.332;2023-05-28T03:01:45;19.49;55.48
68842;SHT35;55849;48.482;2.332;2023-05-28T03:04:47;19.49;55.41
68842;SHT35;55849;48.482;2.332;2023-05-28T03:07:48;19.43;55.40
68842;SHT35;55849;48.482;2.332;2023-05-28T03:10:51;19.40;55.62
68842;SHT35;55849;48.482;2.332;2023-05-28T03:13:53;19.39;55.55
68842;SHT35;55849;48.482;2.332;2023-05-28T03:16:55;19.40;55.67
68842;SHT35;55849;48.482;2.332;2023-05-28T03:19:56;19.37;55.67
68842;SHT35;55849;48.482;2.332;2023-05-28T03:22:58;19.33;55.29
68842;SHT35;55849;48.482;2.332;2023-05-28T03:26:01;19.35;55.47
68842;SHT35;55849;48.482;2.332;2023-05-28T03:29:03;19.30;55.63
68842;SHT35;55849;48.482;2.332;2023-05-28T03:32:05;19.32;55.44
68842;SHT35;55849;48.482;2.332;2023-05-28T03:35:07;19.30;55.32
68842;SHT35;55849;48.482;2.332;2023-05-28T03:38:09;19.33;55.79
68842;SHT35;55849;48.482;2.332;2023-05-28T03:41:12;19.29;55.86
68842;SHT35;55849;48.482;2.332;2023-05-28T03:44:13;19.32;55.56
68842;SHT35;55849;48.482;2.332;2023-05-28T03:47:16;19.28;55.27
68842;SHT35;55849;48.482;2.332;2023-05-28T03:50:18;19.26;55.79
68842;SHT35;55849;48.482;2.332;2023-05-28T03:53:20;19.26;56.11
68842;SHT35;55849;48.482;2.332;2023-05-28T03:56:23;19.22;55.81
68842;SHT35;55849;48.482;2.332;2023-05-28T03:59:24;19.22;55.94
68842;SHT35;55849;48.482;2.332;2023-05-28T04:02:26;19.18;56.04
68842;SHT35;55849;48.482;2.332;2023-05-28T04:05:27;19.14;56.16
68842;SHT35;55849;48.482;2.332;2023-05-28T04:08:29;19.10;56.07
68842;SHT35;55849;48.482;2.332;2023-05-28T04:11:32;19.02;56.23
68842;SHT35;55849;48.482;2.332;2023-05-28T04:14:35;19.01;56.43
68842;SHT35;55849;48.482;2.332;2023-05-28T04:17:36;18.98;56.54
68842;SHT35;55849;48.482;2.332;2023-05-28T04:20:38;18.97;56.78
68842;SHT35;55849;48.482;2.332;2023-05-28T04:23:40;18.91;56.73
68842;SHT35;55849;48.482;2.332;2023-05-28T04:26:43;18.87;56.77
68842;SHT35;55849;48.482;2.332;2023-05-28T04:29:45;18.81;56.88
68842;SHT35;55849;48.482;2.332;2023-05-28T04:32:47;18.78;57.01
68842;SHT35;55849;48.482;2.332;2023-05-28T04:35:48;18.78;57.03
68842;SHT35;55849;48.482;2.332;2023-05-28T04:38:50;18.73;57.27
68842;SHT35;55849;48.482;2.332;2023-05-28T04:41:56;18.71;57.27
68842;SHT35;55849;48.482;2.332;2023-05-28T04:44:57;18.67;57.41
68842;SHT35;55849;48.482;2.332;2023-05-28T04:48:00;18.67;57.54
68842;SHT35;55849;48.482;2.332;2023-05-28T04:51:03;18.64;57.88
68842;SHT35;55849;48.482;2.332;2023-05-28T04:54:05;18.64;58.06
68842;SHT35;55849;48.482;2.332;2023-05-28T04:57:08;18.64;58.22
68842;SHT35;55849;48.482;2.332;2023-05-28T05:00:11;18.61;58.38
68842;SHT35;55849;48.482;2.332;2023-05-28T05:03:14;18.57;58.49
68842;SHT35;55849;48.482;2.332;2023-05-28T05:06:16;18.61;58.71
68842;SHT35;55849;48.482;2.332;2023-05-28T05:09:17;18.61;58.77
68842;SHT35;55849;48.482;2.332;2023-05-28T05:12:21;18.63;59.12
68842;SHT35;55849;48.482;2.332;2023-05-28T05:15:23;18.64;59.18
68842;SHT35;55849;48.482;2.332;2023-05-28T05:18:24;18.66;59.08
68842;SHT35;55849;48.482;2.332;2023-05-28T05:21:26;18.67;59.13
68842;SHT35;55849;48.482;2.332;2023-05-28T05:24:27;18.69;59.56
68842;SHT35;55849;48.482;2.332;2023-05-28T05:27:34;18.73;59.41
68842;SHT35;55849;48.482;2.332;2023-05-28T05:30:36;18.74;59.67
68842;SHT35;55849;48.482;2.332;2023-05-28T05:33:38;18.78;59.65
68842;SHT35;55849;48.482;2.332;2023-05-28T05:36:40;18.83;59.70
68842;SHT35;55849;48.482;2.332;2023-05-28T05:39:42;18.80;59.55
68842;SHT35;55849;48.482;2.332;2023-05-28T05:42:45;18.85;59.88
68842;SHT35;55849;48.482;2.332;2023-05-28T05:45:46;18.84;59.70
68842;SHT35;55849;48.482;2.332;2023-05-28T05:48:48;18.90;60.09
68842;SHT35;55849;48.482;2.332;2023-05-28T05:51:49;18.91;59.39
68842;SHT35;55849;48.482;2.332;2023-05-28T05:54:51;18.91;59.37
68842;SHT35;55849;48.482;2.332;2023-05-28T05:57:54;18.94;59.52
68842;SHT35;55849;48.482;2.332;2023-05-28T06:00:57;18.95;59.75
68842;SHT35;55849;48.482;2.332;2023-05-28T06:03:58;18.95;60.15
68842;SHT35;55849;48.482;2.332;2023-05-28T06:07:00;19.00;60.39
68842;SHT35;55849;48.482;2.332;2023-05-28T06:10:07;19.00;60.58
68842;SHT35;55849;48.482;2.332;2023-05-28T06:13:10;19.04;60.43
68842;SHT35;55849;48.482;2.332;2023-05-28T06:16:11;19.02;59.57
68842;SHT35;55849;48.482;2.332;2023-05-28T06:19:13;19.05;60.20
68842;SHT35;55849;48.482;2.332;2023-05-28T06:22:15;19.05;60.23
68842;SHT35;55849;48.482;2.332;2023-05-28T06:25:16;19.07;59.60
68842;SHT35;55849;48.482;2.332;2023-05-28T06:28:19;19.10;60.17
68842;SHT35;55849;48.482;2.332;2023-05-28T06:31:21;19.10;59.99
68842;SHT35;55849;48.482;2.332;2023-05-28T06:34:23;19.14;60.05
68842;SHT35;55849;48.482;2.332;2023-05-28T06:37:25;19.15;60.52
68842;SHT35;55849;48.482;2.332;2023-05-28T06:40:26;19.19;60.67
68842;SHT35;55849;48.482;2.332;2023-05-28T06:43:29;19.22;60.40
68842;SHT35;55849;48.482;2.332;2023-05-28T06:46:31;19.23;60.63
68842;SHT35;55849;48.482;2.332;2023-05-28T06:49:33;19.26;60.82
68842;SHT35;55849;48.482;2.332;2023-05-28T06:52:35;19.30;60.92
68842;SHT35;55849;48.482;2.332;2023-05-28T06:55:37;19.33;61.16
68842;SHT35;55849;48.482;2.332;2023-05-28T06:58:40;19.33;60.95
68842;SHT35;55849;48.482;2.332;2023-05-28T07:01:41;19.36;60.77
68842;SHT35;55849;48.482;2.332;2023-05-28T07:04:43;19.37;61.23
68842;SHT35;55849;48.482;2.332;2023-05-28T07:07:44;19.39;60.93
68842;SHT35;55849;48.482;2.332;2023-05-28T07:10:46;19.39;61.12
68842;SHT35;55849;48.482;2.332;2023-05-28T07:13:49;19.45;61.22
68842;SHT35;55849;48.482;2.332;2023-05-28T07:16:53;19.45;61.79
68842;SHT35;55849;48.482;2.332;2023-05-28T07:19:54;19.46;61.61
68842;SHT35;55849;48.482;2.332;2023-05-28T07:22:56;19.47;61.84
68842;SHT35;55849;48.482;2.332;2023-05-28T07:25:58;19.52;62.07
68842;SHT35;55849;48.482;2.332;2023-05-28T07:29:01;19.54;62.24
68842;SHT35;55849;48.482;2.332;2023-05-28T07:32:02;19.56;62.34
68842;SHT35;55849;48.482;2.332;2023-05-28T07:35:04;19.57;61.82
68842;SHT35;55849;48.482;2.332;2023-05-28T07:38:07;19.56;62.09
68842;SHT35;55849;48.482;2.332;2023-05-28T07:41:10;19.60;62.08
68842;SHT35;55849;48.482;2.332;2023-05-28T07:44:13;19.62;62.17
68842;SHT35;55849;48.482;2.332;2023-05-28T07:47:15;19.63;62.12
68842;SHT35;55849;48.482;2.332;2023-05-28T07:50:17;19.69;62.31
68842;SHT35;55849;48.482;2.332;2023-05-28T07:53:18;19.70;61.70
68842;SHT35;55849;48.482;2.332;2023-05-28T07:56:20;19.71;62.30
68842;SHT35;55849;48.482;2.332;2023-05-28T07:59:23;19.75;62.25
68842;SHT35;55849;48.482;2.332;2023-05-28T08:02:25;19.75;62.33
68842;SHT35;55849;48.482;2.332;2023-05-28T08:05:27;19.80;62.40
68842;SHT35;55849;48.482;2.332;2023-05-28T08:08:29;19.80;62.19
68842;SHT35;55849;48.482;2.332;2023-05-28T08:11:30;19.84;62.00
68842;SHT35;55849;48.482;2.332;2023-05-28T08:14:33;19.87;62.18
68842;SHT35;55849;48.482;2.332;2023-05-28T08:17:35;19.87;62.04
68842;SHT35;55849;48.482;2.332;2023-05-28T08:20:37;19.92;61.86
68842;SHT35;55849;48.482;2.332;2023-05-28T08:23:39;19.95;61.88
68842;SHT35;55849;48.482;2.332;2023-05-28T08:26:40;19.97;61.47
68842;SHT35;55849;48.482;2.332;2023-05-28T08:29:43;20.01;61.86
68842;SHT35;55849;48.482;2.332;2023-05-28T08:32:45;20.04;61.95
68842;SHT35;55849;48.482;2.332;2023-05-28T08:35:46;20.08;62.08
68842;SHT35;55849;48.482;2.332;2023-05-28T08:38:48;20.11;61.86
68842;SHT35;55849;48.482;2.332;2023-05-28T08:41:50;20.12;62.15
68842;SHT35;55849;48.482;2.332;2023-05-28T08:44:53;20.18;61.94
68842;SHT35;55849;48.482;2.332;2023-05-28T08:47:55;20.21;61.67
68842;SHT35;55849;48.482;2.332;2023-05-28T08:50:57;20.26;61.65
68842;SHT35;55849;48.482;2.332;2023-05-28T08:53:59;20.28;61.68
68842;SHT35;55849;48.482;2.332;2023-05-28T08:57:01;20.32;61.04
68842;SHT35;55849;48.482;2.332;2023-05-28T09:00:06;20.37;60.61
68842;SHT35;55849;48.482;2.332;2023-05-28T09:03:08;20.40;60.82
68842;SHT35;55849;48.482;2.332;2023-05-28T09:06:10;20.44;61.14
68842;SHT35;55849;48.482;2.332;2023-05-28T09:09:12;20.51;61.22
68842;SHT35;55849;48.482;2.332;2023-05-28T09:12:20;20.56;61.06
68842;SHT35;55849;48.482;2.332;2023-05-28T09:15:23;20.57;61.12
68842;SHT35;55849;48.482;2.332;2023-05-28T09:18:24;20.63;61.14
68842;SHT35;55849;48.482;2.332;2023-05-28T09:21:26;20.67;61.27
68842;SHT35;55849;48.482;2.332;2023-05-28T09:24:28;20.71;61.21
68842;SHT35;55849;48.482;2.332;2023-05-28T09:27:30;20.75;60.89
68842;SHT35;55849;48.482;2.332;2023-05-28T09:30:35;20.81;60.38
68842;SHT35;55849;48.482;2.332;2023-05-28T09:33:41;20.88;60.43
68842;SHT35;55849;48.482;2.332;2023-05-28T09:36:43;20.91;59.98
68842;SHT35;55849;48.482;2.332;2023-05-28T09:39:45;20.98;60.60
68842;SHT35;55849;48.482;2.332;2023-05-28T09:42:50;21.05;60.65
68842;SHT35;55849;48.482;2.332;2023-05-28T09:46:05;21.12;60.28
68842;SHT35;55849;48.482;2.332;2023-05-28T09:49:07;21.16;60.01
68842;SHT35;55849;48.482;2.332;2023-05-28T09:52:09;21.19;59.95
68842;SHT35;55849;48.482;2.332;2023-05-28T09:55:15;21.26;59.67
68842;SHT35;55849;48.482;2.332;2023-05-28T09:58:18;21.32;59.64
68842;SHT35;55849;48.482;2.332;2023-05-28T10:01:24;21.39;59.65
68842;SHT35;55849;48.482;2.332;2023-05-28T10:04:32;21.41;60.32
68842;SHT35;55849;48.482;2.332;2023-05-28T10:07:35;21.49;59.36
68842;SHT35;55849;48.482;2.332;2023-05-28T10:10:39;21.54;59.40
68842;SHT35;55849;48.482;2.332;2023-05-28T10:13:42;21.58;59.41
68842;SHT35;55849;48.482;2.332;2023-05-28T10:16:45;21.64;58.42
68842;SHT35;55849;48.482;2.332;2023-05-28T10:19:47;21.65;57.54
68842;SHT35;55849;48.482;2.332;2023-05-28T10:22:49;21.69;57.44
68842;SHT35;55849;48.482;2.332;2023-05-28T10:25:51;21.71;57.84
68842;SHT35;55849;48.482;2.332;2023-05-28T10:28:53;21.75;58.13
68842;SHT35;55849;48.482;2.332;2023-05-28T10:32:00;21.82;57.52
68842;SHT35;55849;48.482;2.332;2023-05-28T10:35:03;21.86;57.42
68842;SHT35;55849;48.482;2.332;2023-05-28T10:38:06;21.92;56.80
68842;SHT35;55849;48.482;2.332;2023-05-28T10:41:07;22.01;56.79
68842;SHT35;55849;48.482;2.332;2023-05-28T10:44:09;22.08;56.21
68842;SHT35;55849;48.482;2.332;2023-05-28T10:47:13;22.13;56.42
68842;SHT35;55849;48.482;2.332;2023-05-28T10:50:18;22.17;55.44
68842;SHT35;55849;48.482;2.332;2023-05-28T10:53:20;22.24;56.52
68842;SHT35;55849;48.482;2.332;2023-05-28T10:56:21;22.30;56.08
68842;SHT35;55849;48.482;2.332;2023-05-28T10:59:36;22.36;56.36
68842;SHT35;55849;48.482;2.332;2023-05-28T11:02:42;22.44;55.75
68842;SHT35;55849;48.482;2.332;2023-05-28T11:05:44;22.51;55.78
68842;SHT35;55849;48.482;2.332;2023-05-28T11:08:48;22.58;56.00
68842;SHT35;55849;48.482;2.332;2023-05-28T11:11:50;22.61;55.53
68842;SHT35;55849;48.482;2.332;2023-05-28T11:14:52;22.69;56.05
68842;SHT35;55849;48.482;2.332;2023-05-28T11:17:55;22.79;55.03
68842;SHT35;55849;48.482;2.332;2023-05-28T11:21:02;22.84;55.03
68842;SHT35;55849;48.482;2.332;2023-05-28T11:24:04;22.91;55.06
68842;SHT35;55849;48.482;2.332;2023-05-28T11:27:07;23.00;55.41
68842;SHT35;55849;48.482;2.332;2023-05-28T11:30:11;23.07;54.38
68842;SHT35;55849;48.482;2.332;2023-05-28T11:33:15;23.14;54.45
68842;SHT35;55849;48.482;2.332;2023-05-28T11:36:18;23.20;54.52
68842;SHT35;55849;48.482;2.332;2023-05-28T11:39:20;23.28;54.81
68842;SHT35;55849;48.482;2.332;2023-05-28T11:42:23;23.40;53.99
68842;SHT35;55849;48.482;2.332;2023-05-28T11:45:25;23.47;54.21
68842;SHT35;55849;48.482;2.332;2023-05-28T11:48:28;23.57;54.11
68842;SHT35;55849;48.482;2.332;2023-05-28T11:51:30;23.66;54.63
68842;SHT35;55849;48.482;2.332;2023-05-28T11:54:32;23.78;53.50
68842;SHT35;55849;48.482;2.332;2023-05-28T11:57:34;23.88;53.12
68842;SHT35;55849;48.482;2.332;2023-05-28T12:00:37;23.99;53.00
68842;SHT35;55849;48.482;2.332;2023-05-28T12:03:40;24.07;53.00
68842;SHT35;55849;48.482;2.332;2023-05-28T12:06:51;24.23;52.90
68842;SHT35;55849;48.482;2.332;2023-05-28T12:10:02;24.33;51.87
68842;SHT35;55849;48.482;2.332;2023-05-28T12:13:05;24.45;52.22
68842;SHT35;55849;48.482;2.332;2023-05-28T12:16:08;24.59;51.44
68842;SHT35;55849;48.482;2.332;2023-05-28T12:19:11;24.73;50.61
68842;SHT35;55849;48.482;2.332;2023-05-28T12:22:15;24.86;51.09
68842;SHT35;55849;48.482;2.332;2023-05-28T12:25:19;25.03;52.20
68842;SHT35;55849;48.482;2.332;2023-05-28T12:28:24;25.23;51.38
68842;SHT35;55849;48.482;2.332;2023-05-28T12:31:27;25.39;51.35
68842;SHT35;55849;48.482;2.332;2023-05-28T12:34:31;25.63;50.77
68842;SHT35;55849;48.482;2.332;2023-05-28T12:37:33;25.79;49.46
68842;SHT35;55849;48.482;2.332;2023-05-28T12:40:38;26.00;49.83
68842;SHT35;55849;48.482;2.332;2023-05-28T12:43:42;26.20;49.95
68842;SHT35;55849;48.482;2.332;2023-05-28T12:46:51;26.37;49.48
68842;SHT35;55849;48.482;2.332;2023-05-28T12:49:54;26.55;49.25
68842;SHT35;55849;48.482;2.332;2023-05-28T12:52:56;26.73;49.27
68842;SHT35;55849;48.482;2.332;2023-05-28T12:55:58;26.90;48.90
68842;SHT35;55849;48.482;2.332;2023-05-28T12:59:00;27.12;48.91
68842;SHT35;55849;48.482;2.332;2023-05-28T13:02:01;27.37;47.84
68842;SHT35;55849;48.482;2.332;2023-05-28T13:05:05;27.57;47.43
68842;SHT35;55849;48.482;2.332;2023-05-28T13:08:07;27.77;47.02
68842;SHT35;55849;48.482;2.332;2023-05-28T13:11:09;28.00;46.62
68842;SHT35;55849;48.482;2.332;2023-05-28T13:14:11;28.19;47.44
68842;SHT35;55849;48.482;2.332;2023-05-28T13:17:12;28.43;46.21
68842;SHT35;55849;48.482;2.332;2023-05-28T13:20:15;28.64;44.73
68842;SHT35;55849;48.482;2.332;2023-05-28T13:23:17;28.88;44.86
68842;SHT35;55849;48.482;2.332;2023-05-28T13:26:19;29.11;44.73
68842;SHT35;55849;48.482;2.332;2023-05-28T13:29:22;29.33;44.70
68842;SHT35;55849;48.482;2.332;2023-05-28T13:32:24;29.56;44.61
68842;SHT35;55849;48.482;2.332;2023-05-28T13:35:27;29.80;43.24
68842;SHT35;55849;48.482;2.332;2023-05-28T13:38:28;30.02;42.48
68842;SHT35;55849;48.482;2.332;2023-05-28T13:41:30;30.22;42.60
68842;SHT35;55849;48.482;2.332;2023-05-28T13:44:33;30.43;42.06
68842;SHT35;55849;48.482;2.332;2023-05-28T13:47:35;30.63;40.78
68842;SHT35;55849;48.482;2.332;2023-05-28T13:50:38;30.84;40.98
68842;SHT35;55849;48.482;2.332;2023-05-28T13:53:40;31.05;40.69
68842;SHT35;55849;48.482;2.332;2023-05-28T13:56:41;31.25;39.64
68842;SHT35;55849;48.482;2.332;2023-05-28T13:59:43;31.43;38.97
68842;SHT35;55849;48.482;2.332;2023-05-28T14:02:45;31.61;39.48
68842;SHT35;55849;48.482;2.332;2023-05-28T14:05:48;31.84;40.32
68842;SHT35;55849;48.482;2.332;2023-05-28T14:08:49;32.05;39.35
68842;SHT35;55849;48.482;2.332;2023-05-28T14:11:51;32.23;39.34
68842;SHT35;55849;48.482;2.332;2023-05-28T14:14:52;32.43;37.98
68842;SHT35;55849;48.482;2.332;2023-05-28T14:17:54;32.60;37.91
68842;SHT35;55849;48.482;2.332;2023-05-28T14:20:57;32.77;38.60
68842;SHT35;55849;48.482;2.332;2023-05-28T14:23:58;32.91;37.40
68842;SHT35;55849;48.482;2.332;2023-05-28T14:27:00;33.08;37.55
68842;SHT35;55849;48.482;2.332;2023-05-28T14:30:02;33.26;37.83
68842;SHT35;55849;48.482;2.332;2023-05-28T14:33:04;33.43;36.68
68842;SHT35;55849;48.482;2.332;2023-05-28T14:36:07;33.60;37.10
68842;SHT35;55849;48.482;2.332;2023-05-28T14:39:09;33.75;36.86
68842;SHT35;55849;48.482;2.332;2023-05-28T14:42:10;33.89;36.97
68842;SHT35;55849;48.482;2.332;2023-05-28T14:45:12;34.05;37.20
68842;SHT35;55849;48.482;2.332;2023-05-28T14:48:14;34.23;35.06
68842;SHT35;55849;48.482;2.332;2023-05-28T14:51:17;34.37;34.36
68842;SHT35;55849;48.482;2.332;2023-05-28T14:54:18;34.50;33.37
68842;SHT35;55849;48.482;2.332;2023-05-28T14:57:20;34.63;34.03
68842;SHT35;55849;48.482;2.332;2023-05-28T15:00:22;34.75;34.42
68842;SHT35;55849;48.482;2.332;2023-05-28T15:03:24;34.87;33.77
68842;SHT35;55849;48.482;2.332;2023-05-28T15:06:26;34.99;34.26
68842;SHT35;55849;48.482;2.332;2023-05-28T15:09:28;35.10;33.05
68842;SHT35;55849;48.482;2.332;2023-05-28T15:12:30;35.23;33.83
68842;SHT35;55849;48.482;2.332;2023-05-28T15:15:32;35.39;33.89
68842;SHT35;55849;48.482;2.332;2023-05-28T15:18:33;35.53;33.21
68842;SHT35;55849;48.482;2.332;2023-05-28T15:21:36;35.67;33.89
68842;SHT35;55849;48.482;2.332;2023-05-28T15:24:38;35.81;33.72
68842;SHT35;55849;48.482;2.332;2023-05-28T15:27:40;35.92;33.73
68842;SHT35;55849;48.482;2.332;2023-05-28T15:30:42;36.06;34.01
68842;SHT35;55849;48.482;2.332;2023-05-28T15:33:44;36.16;32.73
68842;SHT35;55849;48.482;2.332;2023-05-28T15:36:48;36.27;31.77
68842;SHT35;55849;48.482;2.332;2023-05-28T15:39:50;36.37;33.06
68842;SHT35;55849;48.482;2.332;2023-05-28T15:42:53;36.50;32.57
68842;SHT35;55849;48.482;2.332;2023-05-28T15:45:55;36.55;31.98
68842;SHT35;55849;48.482;2.332;2023-05-28T15:48:57;36.66;31.45
68842;SHT35;55849;48.482;2.332;2023-05-28T15:52:00;36.74;32.18
68842;SHT35;55849;48.482;2.332;2023-05-28T15:55:02;36.81;32.03
68842;SHT35;55849;48.482;2.332;2023-05-28T15:58:04;36.88;31.55
68842;SHT35;55849;48.482;2.332;2023-05-28T16:01:06;36.95;30.88
68842;SHT35;55849;48.482;2.332;2023-05-28T16:04:08;37.04;31.34
68842;SHT35;55849;48.482;2.332;2023-05-28T16:07:12;37.09;31.50
68842;SHT35;55849;48.482;2.332;2023-05-28T16:10:14;37.16;31.21
68842;SHT35;55849;48.482;2.332;2023-05-28T16:13:23;37.19;30.54
68842;SHT35;55849;48.482;2.332;2023-05-28T16:16:25;37.22;30.08
68842;SHT35;55849;48.482;2.332;2023-05-28T16:19:28;37.25;30.51
68842;SHT35;55849;48.482;2.332;2023-05-28T16:22:31;37.23;30.01
68842;SHT35;55849;48.482;2.332;2023-05-28T16:25:33;37.29;29.70
68842;SHT35;55849;48.482;2.332;2023-05-28T16:28:35;37.29;29.66
68842;SHT35;55849;48.482;2.332;2023-05-28T16:31:37;37.27;28.93
68842;SHT35;55849;48.482;2.332;2023-05-28T16:34:39;37.27;29.77
68842;SHT35;55849;48.482;2.332;2023-05-28T16:37:43;37.26;28.56
68842;SHT35;55849;48.482;2.332;2023-05-28T16:40:45;37.25;29.54
68842;SHT35;55849;48.482;2.332;2023-05-28T16:43:47;37.20;28.59
68842;SHT35;55849;48.482;2.332;2023-05-28T16:46:49;37.17;29.17
68842;SHT35;55849;48.482;2.332;2023-05-28T16:49:53;37.12;29.70
68842;SHT35;55849;48.482;2.332;2023-05-28T16:52:56;37.06;28.82
68842;SHT35;55849;48.482;2.332;2023-05-28T16:55:59;37.02;30.18
68842;SHT35;55849;48.482;2.332;2023-05-28T16:59:01;36.95;30.17
68842;SHT35;55849;48.482;2.332;2023-05-28T17:02:03;36.88;30.06
68842;SHT35;55849;48.482;2.332;2023-05-28T17:05:05;36.78;30.58
68842;SHT35;55849;48.482;2.332;2023-05-28T17:08:08;36.68;30.67
68842;SHT35;55849;48.482;2.332;2023-05-28T17:11:10;36.58;29.09
68842;SHT35;55849;48.482;2.332;2023-05-28T17:14:11;36.44;31.32
68842;SHT35;55849;48.482;2.332;2023-05-28T17:17:13;36.32;31.24
68842;SHT35;55849;48.482;2.332;2023-05-28T17:20:15;36.16;30.52
68842;SHT35;55849;48.482;2.332;2023-05-28T17:23:18;36.03;30.10
68842;SHT35;55849;48.482;2.332;2023-05-28T17:26:19;35.78;30.72
68842;SHT35;55849;48.482;2.332;2023-05-28T17:29:21;35.51;31.17
68842;SHT35;55849;48.482;2.332;2023-05-28T17:32:23;35.23;30.79
68842;SHT35;55849;48.482;2.332;2023-05-28T17:35:25;34.95;30.16
68842;SHT35;55849;48.482;2.332;2023-05-28T17:38:28;34.70;32.09
68842;SHT35;55849;48.482;2.332;2023-05-28T17:41:30;34.44;32.16
68842;SHT35;55849;48.482;2.332;2023-05-28T17:44:32;34.20;32.04
68842;SHT35;55849;48.482;2.332;2023-05-28T17:47:34;33.96;32.90
68842;SHT35;55849;48.482;2.332;2023-05-28T17:50:35;33.71;32.48
68842;SHT35;55849;48.482;2.332;2023-05-28T17:53:38;33.50;32.21
68842;SHT35;55849;48.482;2.332;2023-05-28T17:56:41;33.25;33.69
68842;SHT35;55849;48.482;2.332;2023-05-28T17:59:42;33.05;34.56
68842;SHT35;55849;48.482;2.332;2023-05-28T18:02:45;32.82;34.20
68842;SHT35;55849;48.482;2.332;2023-05-28T18:05:47;32.60;34.17
68842;SHT35;55849;48.482;2.332;2023-05-28T18:08:50;32.36;33.93
68842;SHT35;55849;48.482;2.332;2023-05-28T18:11:51;32.13;35.18
68842;SHT35;55849;48.482;2.332;2023-05-28T18:14:53;31.96;35.13
68842;SHT35;55849;48.482;2.332;2023-05-28T18:17:55;31.78;35.42
68842;SHT35;55849;48.482;2.332;2023-05-28T18:20:58;31.60;34.88
68842;SHT35;55849;48.482;2.332;2023-05-28T18:24:07;31.40;35.31
68842;SHT35;55849;48.482;2.332;2023-05-28T18:27:09;31.23;35.93
68842;SHT35;55849;48.482;2.332;2023-05-28T18:30:10;31.11;35.86
68842;SHT35;55849;48.482;2.332;2023-05-28T18:33:12;30.94;36.21
68842;SHT35;55849;48.482;2.332;2023-05-28T18:36:14;30.80;36.79
68842;SHT35;55849;48.482;2.332;2023-05-28T18:39:18;30.63;37.23
68842;SHT35;55849;48.482;2.332;2023-05-28T18:42:20;30.44;37.80
68842;SHT35;55849;48.482;2.332;2023-05-28T18:45:21;30.32;37.63
68842;SHT35;55849;48.482;2.332;2023-05-28T18:48:23;30.18;37.61
68842;SHT35;55849;48.482;2.332;2023-05-28T18:51:24;30.06;38.00
68842;SHT35;55849;48.482;2.332;2023-05-28T18:54:27;29.91;38.02
68842;SHT35;55849;48.482;2.332;2023-05-28T18:57:29;29.81;38.22
68842;SHT35;55849;48.482;2.332;2023-05-28T19:00:31;29.67;37.72
68842;SHT35;55849;48.482;2.332;2023-05-28T19:03:32;29.57;37.91
68842;SHT35;55849;48.482;2.332;2023-05-28T19:06:35;29.45;38.31
68842;SHT35;55849;48.482;2.332;2023-05-28T19:09:38;29.33;38.10
68842;SHT35;55849;48.482;2.332;2023-05-28T19:12:40;29.25;38.90